Time;durP1;ratioP1;P1;durP2;ratioP2;P2;SDS_P1;SDS_P2;PMS_P1;PMS_P2;Temp;Humidity;BMP_temperature;BMP_pressure;BME280_temperature;BME280_humidity;BME280_pressure;Samples;Min_cycle;Max_cycle;Signal;HPM_P1;HPM_P2
2022/05/11 00:00:18;;;;;;;64.13;59.37;;;;;;;14.87;100.00;101184.94;1951196;71;39562;-72
2022/05/11 00:06:01;;;;;;;64.73;60.27;;;;;;;14.84;100.00;101175.77;1924764;72;85995;-72
2022/05/11 00:11:45;;;;;;;65.03;60.40;;;;;;;14.78;100.00;101168.59;1904791;74;85296;-72
2022/05/11 00:17:31;;;;;;;62.87;58.20;;;;;;;14.80;100.00;101171.93;1949349;72;86549;-72
2022/05/11 00:23:16;;;;;;;64.60;60.30;;;;;;;14.81;100.00;101168.53;1978403;71;39869;-72
2022/05/11 00:29:00;;;;;;;64.33;59.83;;;;;;;14.73;100.00;101178.46;1952794;72;86684;-72
2022/05/11 00:34:44;;;;;;;62.73;58.03;;;;;;;14.74;100.00;101182.09;1904805;74;86404;-73
2022/05/11 00:40:30;;;;;;;63.60;59.00;;;;;;;14.75;100.00;101170.61;1913138;74;86272;-72
2022/05/11 00:49:38;;;;;;;68.03;63.10;;;;;;;14.77;100.00;101170.28;1862163;76;85642;-72
2022/05/11 00:55:27;;;;;;;64.90;60.40;;;;;;;14.70;100.00;101163.70;1934779;72;86164;-72
2022/05/11 01:01:11;;;;;;;66.37;61.53;;;;;;;14.59;100.00;101164.42;1980831;71;39834;-72
2022/05/11 01:06:58;;;;;;;62.17;57.70;;;;;;;14.63;100.00;101154.05;1837258;76;86312;-69
2022/05/11 01:12:45;;;;;;;61.27;56.73;;;;;;;14.55;100.00;101141.00;1867198;75;86024;-69
2022/05/11 01:18:31;;;;;;;67.00;61.80;;;;;;;14.68;100.00;101160.93;1915806;73;86730;-72
2022/05/11 01:24:29;;;;;;;64.13;59.23;;;;;;;14.62;100.00;101143.99;1987072;71;39686;-72
2022/05/11 01:30:16;;;;;;;61.47;57.17;;;;;;;14.53;100.00;101139.09;1944991;71;39616;-70
2022/05/11 01:36:05;;;;;;;64.40;59.60;;;;;;;14.53;100.00;101134.91;1839719;76;86097;-72
2022/05/11 01:41:55;;;;;;;64.07;59.77;;;;;;;14.46;100.00;101135.04;1798978;78;86654;-69
2022/05/11 01:47:39;;;;;;;63.97;59.07;;;;;;;14.45;100.00;101144.55;1829221;77;86692;-73
2022/05/11 01:53:26;;;;;;;62.30;57.00;;;;;;;14.44;100.00;101126.95;1923903;73;86560;-69
2022/05/11 01:59:09;;;;;;;63.50;58.60;;;;;;;14.44;100.00;101086.98;1812127;78;86354;-73
2022/05/11 02:10:55;;;;;;;61.97;57.13;;;;;;;14.31;100.00;101119.86;1875664;76;86388;-69
2022/05/11 02:16:40;;;;;;;63.60;58.97;;;;;;;14.24;100.00;101125.02;1852456;76;85632;-72
2022/05/11 02:22:24;;;;;;;64.20;59.93;;;;;;;14.21;100.00;101115.81;1922127;72;86783;-69
2022/05/11 02:28:08;;;;;;;66.03;60.53;;;;;;;14.12;100.00;101112.31;1796226;78;86306;-73
2022/05/11 02:33:52;;;;;;;63.50;58.93;;;;;;;14.19;100.00;101130.11;1801451;78;85415;-69
2022/05/11 02:39:36;;;;;;;64.50;59.77;;;;;;;14.11;100.00;101129.40;1873311;75;86472;-69
2022/05/11 02:45:23;;;;;;;63.17;58.67;;;;;;;13.92;100.00;101117.38;1980377;71;39598;-72
2022/05/11 02:51:08;;;;;;;65.83;61.13;;;;;;;13.84;100.00;101106.32;1810036;78;85652;-69
2022/05/11 02:56:52;;;;;;;65.67;61.00;;;;;;;13.80;100.00;101091.30;1824062;77;86376;-72
2022/05/11 03:02:35;;;;;;;65.37;60.53;;;;;;;13.84;100.00;101101.30;1876147;75;86454;-69
2022/05/11 03:08:20;;;;;;;64.40;59.60;;;;;;;13.82;100.00;101105.77;1979056;71;39788;-72
2022/05/11 03:14:04;;;;;;;64.73;60.17;;;;;;;13.84;100.00;101109.11;1881532;74;86277;-69
2022/05/11 03:19:49;;;;;;;64.63;59.80;;;;;;;13.78;100.00;101115.08;1880375;74;86204;-72
2022/05/11 03:25:33;;;;;;;62.47;58.17;;;;;;;13.78;100.00;101092.16;1800736;77;86567;-72
2022/05/11 03:31:18;;;;;;;63.60;58.87;;;;;;;13.67;100.00;101090.64;1980840;71;39738;-72
2022/05/11 03:37:02;;;;;;;64.93;59.60;;;;;;;13.72;100.00;101098.95;1846474;76;86814;-72
2022/05/11 03:42:47;;;;;;;63.70;58.90;;;;;;;13.67;100.00;101097.63;1887985;74;86489;-69
2022/05/11 03:48:32;;;;;;;64.20;59.10;;;;;;;13.68;100.00;101085.34;1806773;77;85965;-72
2022/05/11 03:54:18;;;;;;;61.60;57.20;;;;;;;13.58;100.00;101072.91;1940889;71;39833;-68
2022/05/11 04:00:06;;;;;;;62.27;57.73;;;;;;;13.61;100.00;101067.55;1844300;76;86345;-69
2022/05/11 04:05:50;;;;;;;62.37;57.47;;;;;;;13.72;100.00;101073.00;1892476;73;86560;-69
2022/05/11 04:11:36;;;;;;;62.03;57.63;;;;;;;13.67;100.00;101052.40;1801553;77;86415;-72
2022/05/11 04:17:20;;;;;;;64.07;59.53;;;;;;;13.60;100.00;101051.95;1975322;71;39521;-72
2022/05/11 04:23:04;;;;;;;63.40;58.23;;;;;;;13.59;100.00;101050.28;1888516;74;86149;-72
2022/05/11 04:28:48;;;;;;;62.53;57.70;;;;;;;13.55;100.00;101060.39;1869637;74;85441;-69
2022/05/11 04:34:32;;;;;;;66.80;61.80;;;;;;;13.49;100.00;101054.60;1764814;79;85930;-72
2022/05/11 04:40:16;;;;;;;63.10;58.37;;;;;;;13.44;100.00;101056.05;1941055;71;39739;-72
2022/05/11 04:46:01;;;;;;;64.13;59.30;;;;;;;13.37;100.00;101054.77;1948733;72;85973;-72
2022/05/11 04:51:46;;;;;;;63.50;58.83;;;;;;;13.33;100.00;101050.36;1887605;73;86846;-72
2022/05/11 04:57:31;;;;;;;63.77;58.97;;;;;;;13.35;100.00;101038.91;1874856;73;86717;-68
2022/05/11 05:03:15;;;;;;;63.37;58.57;;;;;;;13.30;100.00;101035.62;1981438;71;46512;-69
2022/05/11 05:09:00;;;;;;;64.50;59.40;;;;;;;13.40;100.00;101030.45;1826038;76;86296;-70
2022/05/11 05:14:45;;;;;;;64.07;59.17;;;;;;;13.51;100.00;101031.98;1872229;74;85457;-72
2022/05/11 05:20:30;;;;;;;65.50;60.17;;;;;;;13.57;100.00;101023.22;1867728;73;85310;-67
2022/05/11 05:26:15;;;;;;;63.83;58.70;;;;;;;13.63;100.00;101029.58;1984174;71;39619;-68
2022/05/11 05:31:59;;;;;;;64.67;59.67;;;;;;;13.72;100.00;101019.39;1845672;76;86479;-70
2022/05/11 05:37:45;;;;;;;67.20;61.87;;;;;;;13.80;100.00;101029.87;1900175;73;86313;-69
2022/05/11 05:43:29;;;;;;;66.27;60.80;;;;;;;13.81;100.00;101025.95;1938045;73;85951;-69
2022/05/11 05:49:15;;;;;;;65.70;60.10;;;;;;;13.89;100.00;101029.46;1982763;71;39626;-73
2022/05/11 05:54:59;;;;;;;66.03;60.53;;;;;;;13.95;100.00;101024.60;1827852;76;85940;-70
2022/05/11 06:00:42;;;;;;;70.40;64.77;;;;;;;14.04;100.00;101008.81;1883779;73;86002;-72
2022/05/11 06:06:27;;;;;;;71.83;66.23;;;;;;;14.03;100.00;100996.81;1912241;73;85464;-72
2022/05/11 06:12:13;;;;;;;73.83;68.30;;;;;;;14.14;100.00;100998.88;1928223;71;39604;-73
2022/05/11 06:17:59;;;;;;;71.10;65.60;;;;;;;14.32;100.00;100986.83;1845984;76;86168;-71
2022/05/11 06:23:42;;;;;;;71.33;65.73;;;;;;;14.39;100.00;100985.89;1879886;73;85842;-72
2022/05/11 06:29:26;;;;;;;70.60;65.30;;;;;;;14.59;100.00;100992.48;1917733;74;86475;-72
2022/05/11 06:35:11;;;;;;;71.57;66.20;;;;;;;14.62;100.00;100984.64;1977068;71;39520;-72
2022/05/11 06:40:56;;;;;;;71.03;65.73;;;;;;;14.74;100.00;100976.56;1888048;74;86301;-68
2022/05/11 06:46:40;;;;;;;70.77;65.23;;;;;;;14.95;100.00;100969.42;1887049;75;86558;-70
2022/05/11 06:52:26;;;;;;;67.63;62.73;;;;;;;15.15;100.00;100959.75;1919516;72;86455;-68
2022/05/11 07:04:11;;;;;;;69.17;63.73;;;;;;;15.20;100.00;100956.27;1959260;71;39740;-72
2022/05/11 07:09:55;;;;;;;71.33;65.87;;;;;;;15.20;100.00;100954.88;1882642;74;86479;-69
2022/05/11 07:15:39;;;;;;;71.70;66.37;;;;;;;15.44;100.00;100953.23;1804822;77;86518;-68
2022/05/11 07:21:23;;;;;;;67.83;62.67;;;;;;;15.56;100.00;100926.11;1864307;76;85382;-71
2022/05/11 07:27:08;;;;;;;67.63;62.70;;;;;;;15.86;100.00;100942.16;1977806;72;86665;-68
2022/05/11 07:32:53;;;;;;;66.47;61.73;;;;;;;15.71;100.00;100939.16;1805933;78;86566;-73
2022/05/11 07:38:39;;;;;;;64.63;60.00;;;;;;;15.78;100.00;100934.52;1866499;76;86563;-74
2022/05/11 07:44:23;;;;;;;65.23;60.60;;;;;;;15.83;100.00;100955.41;1950820;73;86640;-74
2022/05/11 07:50:09;;;;;;;64.50;59.67;;;;;;;15.83;100.00;100939.41;1974605;71;85678;-69
2022/05/11 08:01:57;;;;;;;61.70;57.40;;;;;;;15.89;100.00;100920.51;1901835;74;86167;-75
2022/05/11 08:07:43;;;;;;;69.00;64.60;;;;;;;15.88;100.00;100925.28;1883380;75;86376;-68
2022/05/11 08:13:31;;;;;;;63.57;59.23;;;;;;;15.66;100.00;100927.27;1908142;74;86129;-75
2022/05/11 08:19:15;;;;;;;62.40;58.07;;;;;;;15.72;100.00;100928.21;1986865;71;39550;-75
2022/05/11 08:24:59;;;;;;;59.20;55.30;;;;;;;15.63;100.00;100913.31;1834070;76;86248;-75
2022/05/11 08:36:50;;;;;;;57.03;53.33;;;;;;;15.54;100.00;100925.02;1877053;75;86233;-71
2022/05/11 08:42:35;;;;;;;53.43;49.40;;;;;;;15.65;100.00;100919.44;1810504;77;86294;-76
2022/05/11 08:48:26;;;;;;;54.30;50.50;;;;;;;15.69;100.00;100936.42;1984497;71;40157;-70
2022/05/11 08:54:15;;;;;;;56.20;52.53;;;;;;;15.85;100.00;100920.32;1979950;71;39577;-74
2022/05/11 09:00:02;;;;;;;55.73;51.97;;;;;;;15.86;100.00;100919.19;1842346;76;86578;-70
2022/05/11 09:05:50;;;;;;;49.30;45.90;;;;;;;15.87;100.00;100914.41;1906133;73;86350;-70
2022/05/11 09:11:38;;;;;;;52.50;48.83;;;;;;;16.00;100.00;100909.31;1801459;77;86467;-70
2022/05/11 09:17:25;;;;;;;50.50;47.20;;;;;;;16.00;100.00;100903.70;1983162;71;39691;-70
2022/05/11 09:23:28;;;;;;;46.73;43.63;;;;;;;16.20;100.00;100892.52;1948574;71;39499;-74
2022/05/11 09:29:22;;;;;;;43.47;40.87;;;;;;;16.21;100.00;100910.42;1983573;71;39546;-75
2022/05/11 09:35:23;;;;;;;49.13;45.43;;;;;;;16.05;100.00;100895.14;1835629;76;86667;-74
2022/05/11 09:41:23;;;;;;;50.57;47.30;;;;;;;16.03;100.00;100902.22;1984222;71;39534;-70
2022/05/11 09:47:31;;;;;;;57.17;52.97;;;;;;;15.97;100.00;100903.50;1810752;78;86366;-75
2022/05/11 09:53:37;;;;;;;54.63;51.20;;;;;;;15.83;100.00;100909.99;1808194;77;86320;-70
2022/05/11 09:59:33;;;;;;;54.00;50.47;;;;;;;15.88;100.00;100917.44;1924861;73;86603;-69
2022/05/11 10:05:42;;;;;;;54.53;50.90;;;;;;;15.82;100.00;100908.94;1808550;76;86353;-75
2022/05/11 10:11:36;;;;;;;53.13;49.83;;;;;;;15.88;100.00;100902.03;1938606;72;85820;-72
2022/05/11 10:26:37;;;;;;;56.27;52.73;;;;;;;15.91;100.00;100901.42;1950386;73;85124;-72
2022/05/11 10:29:13;;;;;;;60.80;56.77;;;;;;;15.87;100.00;100895.60;1880834;72;938673;-70
2022/05/11 10:35:03;;;;;;;63.60;59.30;;;;;;;15.57;100.00;100903.97;1829258;76;86367;-70
2022/05/11 10:37:38;;;;;;;68.47;63.77;;;;;;;15.47;100.00;100914.80;1786935;76;939506;-74
2022/05/11 10:40:18;;;;;;;67.47;62.57;;;;;;;15.44;100.00;100895.28;1764030;78;940807;-69
2022/05/11 10:42:52;;;;;;;69.57;64.83;;;;;;;15.41;100.00;100908.48;1803616;76;938901;-71
2022/05/11 10:49:00;;;;;;;70.77;65.87;;;;;;;15.79;100.00;100888.55;1798985;77;86304;-70
2022/05/11 10:58:13;;;;;;;69.90;64.77;;;;;;;15.45;100.00;100889.91;1980804;70;85378;-74
2022/05/11 11:04:12;;;;;;;73.73;68.27;;;;;;;15.33;100.00;100896.64;1829574;75;85888;-74
2022/05/11 11:13:43;;;;;;;69.57;64.30;;;;;;;15.35;100.00;100876.75;1901761;75;86509;-69
2022/05/11 11:16:15;;;;;;;69.85;64.55;;;;;;;15.38;100.00;100873.31;1824455;76;938765;-69
2022/05/11 11:18:49;;;;;;;70.47;65.03;;;;;;;15.46;100.00;100876.17;1852448;76;938836;-75
2022/05/11 11:21:22;;;;;;;71.73;66.50;;;;;;;15.48;100.00;100873.08;1840231;76;940846;-75
2022/05/11 11:24:17;;;;;;;68.03;62.70;;;;;;;15.42;100.00;100872.93;1852450;76;939164;-69
2022/05/11 11:30:22;;;;;;;68.47;63.37;;;;;;;15.44;100.00;100868.69;1830479;76;85331;-69
2022/05/11 11:36:34;;;;;;;71.60;66.27;;;;;;;15.61;100.00;100855.98;1937618;73;86275;-74
2022/05/11 11:42:36;;;;;;;67.53;62.27;;;;;;;15.64;100.00;100855.34;1939925;71;40314;-74
2022/05/11 11:48:23;;;;;;;75.40;69.57;;;;;;;15.45;100.00;100853.52;1983477;71;40214;-67
2022/05/11 11:54:08;;;;;;;72.50;66.93;;;;;;;15.40;100.00;100857.84;1794882;78;85128;-70
2022/05/11 11:59:56;;;;;;;69.43;64.00;;;;;;;15.45;100.00;100850.72;1795436;78;86594;-69
2022/05/11 12:05:46;;;;;;;71.77;66.50;;;;;;;15.41;100.00;100844.11;1871447;75;86064;-68
2022/05/11 12:17:38;;;;;;;67.47;62.07;;;;;;;15.66;100.00;100831.46;1858059;75;86031;-69
2022/05/11 12:23:29;;;;;;;69.27;63.70;;;;;;;15.63;100.00;100811.68;1917158;72;86224;-75
2022/05/11 12:35:23;;;;;;;70.80;65.40;;;;;;;15.71;100.00;100817.90;1984535;71;39476;-75
2022/05/11 12:41:16;;;;;;;71.70;66.07;;;;;;;15.61;100.00;100812.02;1928194;71;39583;-74
2022/05/11 12:47:07;;;;;;;74.60;69.20;;;;;;;15.63;100.00;100804.67;1875368;75;85603;-70
2022/05/11 12:53:07;;;;;;;74.80;69.20;;;;;;;15.66;100.00;100818.06;1831279;76;86274;-75
2022/05/11 12:58:52;;;;;;;70.60;64.80;;;;;;;15.61;100.00;100812.59;1892288;73;85920;-69
2022/05/11 13:04:36;;;;;;;76.20;70.30;;;;;;;15.46;100.00;100796.97;1801011;77;86423;-74
2022/05/11 13:10:24;;;;;;;66.10;60.73;;;;;;;15.53;100.00;100784.80;1968797;71;40213;-74
2022/05/11 13:16:13;;;;;;;68.33;63.00;;;;;;;15.65;100.00;100790.63;1930270;71;39565;-77
2022/05/11 13:22:01;;;;;;;71.57;65.77;;;;;;;15.65;100.00;100797.62;1840746;76;85316;-79
2022/05/11 13:27:58;;;;;;;66.70;61.63;;;;;;;15.66;100.00;100798.46;1902386;74;86211;-74
2022/05/11 13:33:49;;;;;;;62.70;57.80;;;;;;;15.63;100.00;100797.11;1873511;74;86884;-75
2022/05/11 13:39:39;;;;;;;60.77;56.17;;;;;;;15.69;100.00;100798.64;1801441;77;86009;-75
2022/05/11 13:45:27;;;;;;;63.57;58.57;;;;;;;15.69;100.00;100794.44;1908473;74;86461;-69
2022/05/11 13:51:17;;;;;;;62.03;57.13;;;;;;;15.55;100.00;100792.28;1975472;71;39761;-69
2022/05/11 13:57:04;;;;;;;66.37;61.27;;;;;;;15.66;100.00;100796.45;1796542;77;86522;-74
2022/05/11 14:02:52;;;;;;;67.00;62.00;;;;;;;15.76;100.00;100795.37;1870160;74;85514;-69
2022/05/11 14:08:36;;;;;;;67.00;62.10;;;;;;;15.83;100.00;100788.16;1808229;77;85797;-70
2022/05/11 14:14:20;;;;;;;66.53;61.93;;;;;;;15.72;100.00;100788.76;1973686;70;39673;-69
2022/05/11 14:20:08;;;;;;;62.93;58.33;;;;;;;15.61;100.00;100785.98;1830376;76;86298;-74
2022/05/11 14:25:54;;;;;;;62.20;57.50;;;;;;;15.67;100.00;100792.52;1809309;78;86320;-81
2022/05/11 14:31:38;;;;;;;61.50;57.00;;;;;;;15.65;100.00;100790.63;1809892;77;86710;-74
2022/05/11 14:37:24;;;;;;;62.60;57.90;;;;;;;15.66;100.00;100780.26;1949297;73;86504;-75
2022/05/11 14:43:09;;;;;;;60.03;55.47;;;;;;;15.95;100.00;100780.56;1801819;78;86357;-75
2022/05/11 14:48:55;;;;;;;64.53;59.83;;;;;;;15.90;100.00;100784.33;1802849;78;86569;-75
2022/05/11 14:54:40;;;;;;;64.07;59.07;;;;;;;15.87;100.00;100792.56;1851543;76;86304;-69
2022/05/11 15:06:26;;;;;;;60.97;56.50;;;;;;;15.74;100.00;100757.07;1915888;74;85920;-70
2022/05/11 15:18:16;;;;;;;58.27;53.77;;;;;;;15.86;100.00;100759.52;1983290;71;39570;-76
2022/05/11 15:24:01;;;;;;;58.53;54.23;;;;;;;15.92;100.00;100789.59;1827943;76;86290;-74
2022/05/11 15:29:45;;;;;;;62.77;58.10;;;;;;;15.84;100.00;100781.98;1886951;74;86466;-74
2022/05/11 15:35:32;;;;;;;68.33;63.57;;;;;;;15.83;100.00;100786.75;1931319;73;86581;-72
2022/05/11 15:41:19;;;;;;;71.97;67.27;;;;;;;15.85;100.00;100797.08;1921750;71;39547;-72
2022/05/11 15:47:05;;;;;;;76.53;71.57;;;;;;;15.76;100.00;100799.57;1835397;75;86467;-74
2022/05/11 15:52:53;;;;;;;77.53;72.33;;;;;;;15.99;100.00;100801.18;1829657;76;86469;-73
2022/05/11 15:58:39;;;;;;;74.33;69.00;;;;;;;15.97;100.00;100809.64;1801682;77;86292;-73
2022/05/11 16:04:26;;;;;;;79.63;74.33;;;;;;;16.14;100.00;100804.11;1947249;72;86277;-75
2022/05/11 16:10:14;;;;;;;77.37;72.10;;;;;;;16.30;100.00;100803.95;1983597;71;40028;-76
2022/05/11 16:15:59;;;;;;;79.03;73.73;;;;;;;16.36;100.00;100830.09;1839898;76;86227;-74
2022/05/11 16:21:44;;;;;;;79.23;74.10;;;;;;;16.50;100.00;100836.16;1874245;75;86356;-73
2022/05/11 16:27:29;;;;;;;80.37;74.97;;;;;;;16.40;100.00;100844.28;1902623;72;85445;-72
2022/05/11 16:33:14;;;;;;;85.90;79.70;;;;;;;16.45;100.00;100839.11;1976945;71;39573;-75
2022/05/11 16:38:59;;;;;;;75.37;70.37;;;;;;;16.57;100.00;100848.58;1861882;76;86253;-73
2022/05/11 16:44:45;;;;;;;76.87;71.77;;;;;;;16.53;100.00;100843.91;1885378;74;86348;-72
2022/05/11 16:50:29;;;;;;;72.17;67.27;;;;;;;16.57;100.00;100858.39;1926951;71;86452;-73
2022/05/11 16:56:15;;;;;;;77.73;72.63;;;;;;;16.43;100.00;100863.25;1958317;71;39672;-69
2022/05/11 17:02:00;;;;;;;72.13;67.23;;;;;;;16.47;100.00;100883.91;1825868;76;85676;-74
2022/05/11 17:07:45;;;;;;;70.90;66.10;;;;;;;16.54;100.00;100893.24;1881198;75;86401;-76
2022/05/11 17:13:29;;;;;;;71.23;66.43;;;;;;;16.60;100.00;100899.00;1909976;74;86356;-69
2022/05/11 17:19:14;;;;;;;68.83;64.10;;;;;;;16.81;100.00;100905.67;1977159;71;39616;-73
2022/05/11 17:24:59;;;;;;;73.00;68.10;;;;;;;16.66;100.00;100911.71;1847909;76;85951;-70
2022/05/11 17:30:45;;;;;;;73.53;68.43;;;;;;;16.47;100.00;100917.56;1877526;75;85438;-70
2022/05/11 17:36:30;;;;;;;69.70;64.87;;;;;;;16.69;100.00;100917.49;1917529;74;85703;-76
2022/05/11 17:42:15;;;;;;;69.33;64.53;;;;;;;16.73;100.00;100924.67;1976293;71;39579;-77
2022/05/11 17:47:59;;;;;;;74.20;69.20;;;;;;;16.92;100.00;100928.63;1831228;76;85623;-74
2022/05/11 17:53:44;;;;;;;75.10;70.27;;;;;;;16.79;100.00;100945.83;1872570;75;85999;-75
2022/05/11 17:59:27;;;;;;;75.67;71.07;;;;;;;16.71;100.00;100946.63;1908629;72;86622;-70
2022/05/11 18:05:13;;;;;;;73.37;68.67;;;;;;;16.44;100.00;100956.03;1983444;71;39467;-75
2022/05/11 18:10:58;;;;;;;67.27;62.80;;;;;;;16.38;100.00;100969.39;1854043;76;86385;-74
2022/05/11 18:16:41;;;;;;;69.83;65.47;;;;;;;16.42;100.00;101000.98;1891202;73;86177;-76
2022/05/11 18:22:26;;;;;;;69.60;65.10;;;;;;;16.34;100.00;101003.39;1944570;72;86406;-74
2022/05/11 18:28:11;;;;;;;71.27;66.73;;;;;;;16.21;100.00;101032.34;1802635;78;86202;-74
2022/05/11 18:33:58;;;;;;;67.50;62.77;;;;;;;16.19;100.00;101033.79;1859314;76;86317;-72
2022/05/11 18:39:43;;;;;;;70.20;65.57;;;;;;;16.14;100.00;101033.91;1874405;75;86344;-72
2022/05/11 18:45:27;;;;;;;68.50;64.23;;;;;;;16.05;100.00;101055.43;1922399;73;86670;-69
2022/05/11 18:51:12;;;;;;;66.13;61.83;;;;;;;15.91;100.00;101060.53;1987035;71;39531;-75
2022/05/11 18:56:56;;;;;;;68.83;64.27;;;;;;;15.74;100.00;101079.14;1907862;74;86551;-74
2022/05/11 19:02:39;;;;;;;72.60;67.60;;;;;;;15.70;100.00;101096.32;1803935;77;86563;-70
2022/05/11 19:08:25;;;;;;;72.40;67.40;;;;;;;15.48;100.00;101112.44;1944482;72;86025;-75
2022/05/11 19:14:09;;;;;;;69.43;64.53;;;;;;;15.48;100.00;101123.06;1803015;78;86107;-72
2022/05/11 19:19:52;;;;;;;71.07;66.07;;;;;;;15.22;100.00;101137.30;1808745;76;86146;-73
2022/05/11 19:25:36;;;;;;;71.97;67.00;;;;;;;15.16;100.00;101152.52;1805522;77;86092;-71
2022/05/11 19:31:21;;;;;;;72.00;67.00;;;;;;;15.10;100.00;101167.77;1942410;71;39709;-71
2022/05/11 19:37:08;;;;;;;71.63;66.43;;;;;;;15.12;100.00;101177.23;1824005;76;86158;-73
2022/05/11 19:42:52;;;;;;;75.63;70.17;;;;;;;14.99;100.00;101192.84;1801014;78;86341;-68
2022/05/11 19:48:37;;;;;;;73.40;68.37;;;;;;;14.96;100.00;101208.28;1798686;77;86734;-72
2022/05/11 19:54:22;;;;;;;72.60;67.70;;;;;;;14.80;100.00;101220.03;1982277;71;39681;-70
2022/05/11 20:00:10;;;;;;;71.37;66.57;;;;;;;14.71;100.00;101236.67;1816515;75;86026;-72
2022/05/11 20:05:55;;;;;;;72.17;66.97;;;;;;;14.69;100.00;101246.48;1795306;78;86132;-70
2022/05/11 20:11:42;;;;;;;72.57;67.20;;;;;;;14.59;100.00;101262.27;1888624;73;85408;-74
2022/05/11 20:17:27;;;;;;;70.23;65.17;;;;;;;14.54;100.00;101265.17;1915152;73;86015;-71
2022/05/11 20:23:11;;;;;;;74.70;69.20;;;;;;;14.37;100.00;101294.20;1939884;71;39677;-69
2022/05/11 20:28:56;;;;;;;77.20;71.90;;;;;;;14.33;100.00;101303.45;1889523;74;86598;-70
2022/05/11 20:40:43;;;;;;;74.00;68.70;;;;;;;14.21;100.00;101317.83;1878215;75;85599;-69
2022/05/11 20:46:26;;;;;;;76.40;71.13;;;;;;;14.05;100.00;101327.52;1923403;72;86585;-73
2022/05/11 20:52:10;;;;;;;75.60;70.17;;;;;;;14.04;100.00;101338.42;1986805;71;39666;-71
2022/05/11 20:57:54;;;;;;;72.80;67.53;;;;;;;13.99;100.00;101343.50;1809293;78;86366;-71
2022/05/11 21:03:36;;;;;;;73.30;67.80;;;;;;;13.89;100.00;101357.59;1935038;73;86452;-72
2022/05/11 21:09:21;;;;;;;74.73;69.17;;;;;;;13.84;100.00;101360.42;1982915;71;39419;-74
2022/05/11 21:15:08;;;;;;;73.67;68.27;;;;;;;13.58;100.00;101369.61;1826467;76;87041;-71
2022/05/11 21:20:55;;;;;;;72.27;66.63;;;;;;;13.41;100.00;101379.52;1797676;78;86369;-74
2022/05/11 21:26:42;;;;;;;72.83;67.40;;;;;;;13.42;100.00;101390.41;1809062;77;86354;-74
2022/05/11 21:32:27;;;;;;;72.60;67.00;;;;;;;13.29;100.00;101395.25;1911497;74;85774;-71
2022/05/11 21:38:13;;;;;;;70.23;64.83;;;;;;;13.18;100.00;101410.37;1954289;71;39717;-72
2022/05/11 21:43:58;;;;;;;75.93;70.03;;;;;;;13.21;100.00;101416.78;1846442;76;86057;-73
2022/05/11 21:49:41;;;;;;;70.80;65.37;;;;;;;13.11;100.00;101430.78;1869658;75;86139;-70
2022/05/11 21:55:26;;;;;;;72.17;66.73;;;;;;;13.06;100.00;101441.94;1926075;73;86440;-74
2022/05/11 22:01:24;;;;;;;68.73;63.27;;;;;;;12.94;100.00;101459.02;1801047;78;86468;-73
2022/05/11 22:07:08;;;;;;;70.23;64.47;;;;;;;12.72;100.00;101473.88;1796065;78;86069;-73
2022/05/11 22:12:52;;;;;;;64.83;59.10;;;;;;;12.24;100.00;101485.98;1809171;78;86040;-70
2022/05/11 22:18:37;;;;;;;62.97;57.77;;;;;;;12.09;100.00;101497.71;1864848;75;86074;-72
2022/05/11 22:24:24;;;;;;;63.03;57.43;;;;;;;12.29;100.00;101497.68;1910427;74;86039;-72
2022/05/11 22:30:11;;;;;;;66.07;60.53;;;;;;;12.30;100.00;101510.50;1801075;78;86622;-74
2022/05/11 22:35:57;;;;;;;65.97;60.20;;;;;;;12.22;100.00;101527.78;1884605;74;86522;-71
2022/05/11 22:41:42;;;;;;;65.50;60.30;;;;;;;12.32;100.00;101539.73;1871788;73;86205;-72
2022/05/11 22:47:27;;;;;;;66.67;61.07;;;;;;;12.18;100.00;101540.05;1908093;72;86125;-74
2022/05/11 22:53:11;;;;;;;65.70;60.33;;;;;;;12.00;100.00;101549.50;1981543;71;39636;-71
2022/05/11 22:58:54;;;;;;;66.20;60.83;;;;;;;11.97;100.00;101553.69;1801415;78;86406;-71
2022/05/11 23:04:38;;;;;;;64.67;59.57;;;;;;;11.99;100.00;101559.80;1810483;77;86219;-70
2022/05/11 23:10:25;;;;;;;64.63;59.03;;;;;;;11.97;100.00;101565.37;1978238;71;39612;-74
2022/05/11 23:16:11;;;;;;;66.13;60.50;;;;;;;11.91;100.00;101566.47;1910860;74;86189;-70
2022/05/11 23:21:57;;;;;;;64.60;59.10;;;;;;;11.85;100.00;101576.79;1884295;74;86413;-70
2022/05/11 23:27:41;;;;;;;63.93;58.50;;;;;;;11.72;100.00;101583.70;1877851;75;86682;-74
2022/05/11 23:33:27;;;;;;;67.33;61.80;;;;;;;11.65;100.00;101590.05;1918252;74;86346;-72
2022/05/11 23:39:12;;;;;;;64.60;58.97;;;;;;;11.64;100.00;101590.31;1987122;71;39572;-74
2022/05/11 23:44:56;;;;;;;67.93;62.67;;;;;;;11.57;100.00;101596.16;1893776;74;86322;-71
2022/05/11 23:50:40;;;;;;;64.57;58.80;;;;;;;11.35;100.00;101607.48;1845195;76;86324;-72
2022/05/11 23:56:24;;;;;;;61.67;56.33;;;;;;;11.35;100.00;101609.42;1944193;72;86055;-72
